Time;durP1;ratioP1;P1;durP2;ratioP2;P2;SDS_P1;SDS_P2;PMS_P1;PMS_P2;Temp;Humidity;BMP_temperature;BMP_pressure;BME280_temperature;BME280_humidity;BME280_pressure;Samples;Min_cycle;Max_cycle;Signal;HPM_P1;HPM_P2
2022/09/09 00:01:30;;;;;;;4.67;4.27;;;14.50;99.90;;;;;;6273682;22;20382;-56
2022/09/09 00:04:25;;;;;;;4.33;4.03;;;14.40;99.90;;;;;;6273481;22;20375;-58
2022/09/09 00:06:56;;;;;;;4.40;4.10;;;14.50;99.90;;;;;;6251782;22;20383;-60
2022/09/09 00:09:27;;;;;;;4.50;4.07;;;14.40;99.90;;;;;;6273292;22;20371;-58
2022/09/09 00:12:03;;;;;;;4.33;3.93;;;14.50;99.90;;;;;;6273576;22;20359;-59
2022/09/09 00:14:49;;;;;;;4.20;3.80;;;14.40;99.90;;;;;;6273278;22;20509;-59
2022/09/09 00:17:21;;;;;;;4.30;4.00;;;14.40;99.90;;;;;;6273701;22;20445;-59
2022/09/09 00:19:56;;;;;;;4.80;4.40;;;14.40;99.90;;;;;;6273684;22;20352;-51
2022/09/09 00:22:26;;;;;;;4.50;4.10;;;14.30;99.90;;;;;;6245958;22;20387;-58
2022/09/09 00:24:53;;;;;;;4.37;3.97;;;14.30;99.90;;;;;;6273410;22;20413;-57
2022/09/09 00:27:19;;;;;;;4.37;3.97;;;14.20;99.90;;;;;;6273635;22;20402;-56
2022/09/09 00:29:59;;;;;;;4.83;3.93;;;14.20;99.90;;;;;;6272468;22;20442;-59
2022/09/09 00:32:29;;;;;;;6.40;4.50;;;14.10;99.90;;;;;;6273384;22;20156;-53
2022/09/09 00:35:12;;;;;;;4.40;4.00;;;14.00;99.90;;;;;;6273158;22;20416;-59
2022/09/09 00:37:38;;;;;;;4.60;4.30;;;14.00;99.90;;;;;;6272786;22;20669;-57
2022/09/09 00:40:18;;;;;;;4.70;4.30;;;14.00;99.90;;;;;;6272643;22;20393;-59
2022/09/09 00:42:45;;;;;;;4.60;4.20;;;13.90;99.90;;;;;;6273372;22;21163;-57
2022/09/09 00:45:25;;;;;;;5.37;4.27;;;13.90;99.90;;;;;;6273397;22;20442;-58
2022/09/09 00:47:52;;;;;;;5.20;4.80;;;13.90;99.90;;;;;;6246105;22;20390;-59
2022/09/09 00:50:49;;;;;;;4.23;3.90;;;13.90;99.90;;;;;;6272844;22;20408;-60
2022/09/09 00:53:32;;;;;;;5.30;4.73;;;13.80;99.90;;;;;;6273201;22;20414;-59
2022/09/09 00:56:16;;;;;;;5.13;4.63;;;13.80;99.90;;;;;;6245824;22;20414;-59
2022/09/09 00:58:58;;;;;;;5.63;5.00;;;13.80;99.90;;;;;;6272189;22;20376;-59
2022/09/09 01:01:23;;;;;;;5.30;4.47;;;13.80;99.90;;;;;;6272812;22;20426;-58
2022/09/09 01:03:54;;;;;;;5.43;4.67;;;13.80;99.90;;;;;;6245216;22;20692;-58
2022/09/09 01:06:36;;;;;;;5.20;4.70;;;13.80;99.90;;;;;;6272580;22;20147;-53
2022/09/09 01:09:11;;;;;;;4.77;4.37;;;13.70;99.90;;;;;;6272883;22;20435;-60
2022/09/09 01:11:51;;;;;;;4.60;4.20;;;13.70;99.90;;;;;;6272243;22;20813;-59
2022/09/09 01:14:34;;;;;;;5.40;4.90;;;13.60;99.90;;;;;;6272492;22;20883;-59
2022/09/09 01:17:07;;;;;;;4.67;4.27;;;13.60;99.90;;;;;;6272661;22;20875;-58
2022/09/09 01:20:02;;;;;;;5.20;4.73;;;13.60;99.90;;;;;;6272664;22;20395;-59
2022/09/09 01:22:36;;;;;;;6.60;4.50;;;13.60;99.90;;;;;;6259410;22;20386;-53
2022/09/09 01:25:12;;;;;;;4.33;3.93;;;13.50;99.90;;;;;;6272799;22;20379;-59
2022/09/09 01:27:41;;;;;;;4.83;4.33;;;13.50;99.90;;;;;;6272196;22;20654;-59
2022/09/09 01:30:12;;;;;;;5.60;4.70;;;13.50;99.90;;;;;;6272505;22;20494;-59
2022/09/09 01:32:41;;;;;;;4.63;4.23;;;13.50;99.90;;;;;;6272446;22;20834;-59
2022/09/09 01:35:30;;;;;;;5.10;4.60;;;13.50;99.90;;;;;;6272498;22;20386;-59
2022/09/09 01:37:56;;;;;;;4.97;4.57;;;13.50;99.90;;;;;;6272329;22;21168;-59
2022/09/09 01:40:22;;;;;;;5.67;4.23;;;13.50;99.90;;;;;;6272583;22;20363;-59
2022/09/09 01:42:48;;;;;;;5.40;4.90;;;13.50;99.90;;;;;;6272442;22;20856;-60
2022/09/09 01:45:13;;;;;;;5.00;4.50;;;13.40;99.90;;;;;;6272681;22;20366;-54
2022/09/09 01:47:39;;;;;;;6.40;4.27;;;13.40;99.90;;;;;;6272550;22;20358;-58
2022/09/09 01:50:06;;;;;;;5.50;4.67;;;13.40;99.90;;;;;;6272604;22;20157;-60
2022/09/09 01:52:35;;;;;;;5.00;4.50;;;13.40;99.90;;;;;;6244872;22;20151;-60
2022/09/09 01:55:01;;;;;;;4.70;4.30;;;13.50;99.90;;;;;;6272297;22;20418;-59
2022/09/09 01:58:19;;;;;;;4.93;4.20;;;13.40;99.90;;;;;;6271984;22;20390;-60
2022/09/09 02:01:01;;;;;;;5.00;4.60;;;13.30;99.90;;;;;;6154942;22;20162;-59
2022/09/09 02:03:28;;;;;;;4.80;4.40;;;13.30;99.90;;;;;;6272122;22;20710;-59
2022/09/09 02:05:54;;;;;;;5.57;4.70;;;13.30;99.90;;;;;;6272547;22;20456;-59
2022/09/09 02:08:31;;;;;;;5.50;4.50;;;13.20;99.90;;;;;;6272086;22;20445;-60
2022/09/09 02:11:11;;;;;;;4.70;4.30;;;13.30;99.90;;;;;;6272615;22;20142;-59
2022/09/09 02:13:38;;;;;;;4.37;4.03;;;13.30;99.90;;;;;;6271930;22;20451;-58
2022/09/09 02:16:22;;;;;;;5.63;4.23;;;13.20;99.90;;;;;;6272328;22;20389;-60
2022/09/09 02:18:50;;;;;;;5.20;4.50;;;13.20;99.90;;;;;;6272276;22;20653;-60
2022/09/09 02:21:17;;;;;;;4.73;4.33;;;13.20;99.90;;;;;;6271748;22;20366;-59
2022/09/09 02:23:46;;;;;;;7.40;4.17;;;13.10;99.90;;;;;;6270790;22;20408;-59
2022/09/09 02:26:19;;;;;;;4.80;4.30;;;13.10;99.90;;;;;;6272179;22;20380;-58
2022/09/09 02:28:46;;;;;;;5.40;4.33;;;13.00;99.90;;;;;;6272013;22;20386;-56
2022/09/09 02:31:14;;;;;;;5.73;4.60;;;13.00;99.90;;;;;;6272154;22;20379;-58
2022/09/09 02:33:45;;;;;;;5.00;4.60;;;12.90;99.90;;;;;;6245100;22;20377;-59
2022/09/09 02:36:15;;;;;;;6.63;4.80;;;12.90;99.90;;;;;;6272110;22;20804;-58
2022/09/09 02:38:50;;;;;;;5.17;4.67;;;12.90;99.90;;;;;;6271784;22;20352;-58
2022/09/09 02:41:24;;;;;;;5.60;5.10;;;12.90;99.90;;;;;;6272130;22;20427;-59
2022/09/09 02:43:50;;;;;;;4.80;4.17;;;12.80;99.90;;;;;;6272051;22;20411;-56
2022/09/09 02:46:28;;;;;;;5.60;4.93;;;12.80;99.90;;;;;;6272026;22;20845;-58
2022/09/09 02:49:17;;;;;;;5.40;4.90;;;12.80;99.90;;;;;;6272355;22;20186;-57
2022/09/09 02:52:06;;;;;;;4.80;4.40;;;12.80;99.90;;;;;;6271450;22;20664;-58
2022/09/09 02:54:36;;;;;;;5.03;4.50;;;12.70;99.90;;;;;;6255175;22;20415;-59
2022/09/09 02:57:11;;;;;;;5.53;4.60;;;12.70;99.90;;;;;;6271785;22;20365;-58
2022/09/09 02:59:37;;;;;;;5.50;4.83;;;12.70;99.90;;;;;;6271841;22;20363;-59
2022/09/09 03:02:03;;;;;;;5.20;4.57;;;12.80;99.90;;;;;;6271364;22;20379;-58
2022/09/09 03:04:30;;;;;;;5.13;4.27;;;12.70;99.90;;;;;;6273201;22;20404;-60
2022/09/09 03:06:57;;;;;;;5.50;5.10;;;12.70;99.90;;;;;;6274277;22;20379;-59
2022/09/09 03:09:23;;;;;;;5.60;5.10;;;12.60;99.90;;;;;;6273913;22;21023;-57
2022/09/09 03:11:49;;;;;;;6.07;4.73;;;12.70;99.90;;;;;;6274206;22;20376;-60
2022/09/09 03:14:15;;;;;;;5.47;4.97;;;12.70;99.90;;;;;;6273975;22;20365;-59
2022/09/09 03:16:42;;;;;;;5.37;4.83;;;12.70;99.90;;;;;;6274240;22;20904;-57
2022/09/09 03:19:08;;;;;;;6.33;4.43;;;12.70;99.90;;;;;;6273846;22;20769;-55
2022/09/09 03:21:35;;;;;;;5.80;4.90;;;12.70;99.90;;;;;;6273448;22;20398;-58
2022/09/09 03:24:03;;;;;;;5.27;4.33;;;12.70;99.90;;;;;;6273610;22;20418;-56
2022/09/09 03:26:30;;;;;;;5.13;4.63;;;12.70;99.90;;;;;;6273751;22;20371;-59
2022/09/09 03:28:55;;;;;;;6.10;4.30;;;12.70;99.90;;;;;;6273481;22;20357;-58
2022/09/09 03:31:21;;;;;;;5.10;4.70;;;12.70;99.90;;;;;;6273859;22;20810;-60
2022/09/09 03:33:47;;;;;;;4.87;4.23;;;12.70;99.90;;;;;;6273821;22;20137;-59
2022/09/09 03:36:13;;;;;;;5.53;4.73;;;12.70;99.90;;;;;;6273806;22;20239;-54
2022/09/09 03:38:39;;;;;;;4.90;4.37;;;12.70;99.90;;;;;;6273852;22;20383;-60
2022/09/09 03:41:05;;;;;;;5.47;4.97;;;12.60;99.90;;;;;;6273496;22;20363;-59
2022/09/09 03:43:31;;;;;;;5.13;4.33;;;12.70;99.90;;;;;;6273538;22;20422;-57
2022/09/09 03:45:56;;;;;;;8.60;4.73;;;12.70;99.90;;;;;;6273601;22;20226;-52
2022/09/09 03:48:24;;;;;;;7.57;5.83;;;12.60;99.90;;;;;;6273398;22;20223;-59
2022/09/09 03:50:52;;;;;;;4.67;4.27;;;12.60;99.90;;;;;;6273142;22;20137;-60
2022/09/09 03:53:19;;;;;;;5.03;4.63;;;12.60;99.90;;;;;;6273544;22;20775;-59
2022/09/09 03:55:47;;;;;;;8.73;5.10;;;12.70;99.90;;;;;;6273467;22;20358;-59
2022/09/09 03:58:13;;;;;;;5.37;4.87;;;12.70;99.90;;;;;;6273612;22;20717;-60
2022/09/09 04:00:42;;;;;;;5.83;4.90;;;12.70;99.90;;;;;;6273433;22;20375;-58
2022/09/09 04:03:09;;;;;;;5.33;4.93;;;12.80;99.90;;;;;;6273420;22;20741;-58
2022/09/09 04:05:35;;;;;;;5.53;4.90;;;12.80;99.90;;;;;;6273125;22;20462;-59
2022/09/09 04:08:00;;;;;;;5.60;5.10;;;12.70;99.90;;;;;;6273423;22;20458;-58
2022/09/09 04:10:26;;;;;;;6.03;5.53;;;12.70;99.90;;;;;;6273275;22;20231;-59
2022/09/09 04:12:52;;;;;;;6.00;5.50;;;12.70;99.90;;;;;;6265026;22;20150;-59
2022/09/09 04:15:18;;;;;;;5.90;5.40;;;12.80;99.90;;;;;;6263258;22;20386;-59
2022/09/09 04:17:44;;;;;;;6.03;5.30;;;12.80;99.90;;;;;;6264211;22;21116;-59
2022/09/09 04:20:11;;;;;;;5.73;5.13;;;12.80;99.90;;;;;;6263414;22;20362;-59
2022/09/09 04:22:38;;;;;;;7.37;5.57;;;12.80;99.90;;;;;;6263906;22;20464;-59
2022/09/09 04:25:05;;;;;;;6.90;5.67;;;12.80;99.90;;;;;;6263850;22;20956;-60
2022/09/09 04:27:31;;;;;;;6.80;6.20;;;12.80;99.90;;;;;;6263351;22;20691;-61
2022/09/09 04:29:57;;;;;;;6.17;5.40;;;12.90;99.90;;;;;;6263572;22;20419;-58
2022/09/09 04:32:23;;;;;;;5.80;5.30;;;12.90;99.90;;;;;;6211254;22;20384;-60
2022/09/09 04:34:48;;;;;;;5.57;5.13;;;12.90;99.90;;;;;;6271409;22;20211;-62
2022/09/09 04:37:14;;;;;;;7.93;5.60;;;12.90;99.90;;;;;;6273514;22;20811;-59
2022/09/09 04:39:40;;;;;;;6.23;5.60;;;12.90;99.90;;;;;;6273008;22;20138;-59
2022/09/09 04:42:05;;;;;;;5.40;4.90;;;13.00;99.90;;;;;;6273000;22;20157;-59
2022/09/09 04:44:31;;;;;;;5.80;5.20;;;13.10;99.90;;;;;;6272756;22;20188;-58
2022/09/09 04:46:57;;;;;;;6.50;5.90;;;13.10;99.90;;;;;;6273438;22;20146;-60
2022/09/09 04:49:23;;;;;;;6.33;5.73;;;13.10;99.90;;;;;;6272317;22;20232;-59
2022/09/09 04:51:49;;;;;;;7.60;6.30;;;13.10;99.90;;;;;;6272666;22;21156;-60
2022/09/09 04:54:14;;;;;;;6.20;5.60;;;13.10;99.90;;;;;;6273087;22;20160;-60
2022/09/09 04:56:42;;;;;;;6.30;5.47;;;13.10;99.90;;;;;;6272691;22;20364;-55
2022/09/09 04:59:07;;;;;;;6.70;6.10;;;13.10;99.90;;;;;;6270715;22;20179;-59
2022/09/09 05:01:33;;;;;;;6.23;5.73;;;13.10;99.90;;;;;;6271215;22;20365;-58
2022/09/09 05:03:58;;;;;;;5.90;5.40;;;13.20;99.90;;;;;;6272122;22;20178;-60
2022/09/09 05:06:24;;;;;;;5.10;4.70;;;13.20;99.90;;;;;;6272587;22;20495;-59
2022/09/09 05:08:51;;;;;;;6.23;5.60;;;13.30;99.90;;;;;;6272092;22;20139;-55
2022/09/09 05:11:27;;;;;;;5.87;5.27;;;13.30;99.90;;;;;;6272504;22;20156;-58
2022/09/09 05:13:54;;;;;;;6.17;5.33;;;13.30;99.90;;;;;;6245165;22;20471;-59
2022/09/09 05:16:20;;;;;;;5.87;5.37;;;13.40;99.90;;;;;;6270556;22;20419;-60
2022/09/09 05:18:46;;;;;;;5.80;5.17;;;13.50;99.90;;;;;;6271863;22;20390;-59
2022/09/09 05:21:14;;;;;;;5.93;4.93;;;13.50;99.90;;;;;;6245334;22;20384;-59
2022/09/09 05:23:40;;;;;;;6.67;5.20;;;13.60;99.90;;;;;;6271928;22;20620;-58
2022/09/09 05:26:08;;;;;;;5.73;4.57;;;13.70;99.90;;;;;;6270701;22;20383;-59
2022/09/09 05:28:35;;;;;;;5.57;5.07;;;13.80;99.90;;;;;;6271008;22;20144;-60
2022/09/09 05:31:04;;;;;;;6.73;4.70;;;13.90;99.90;;;;;;6270973;22;20456;-60
2022/09/09 05:33:30;;;;;;;7.10;5.33;;;14.00;99.90;;;;;;6271851;22;20431;-59
2022/09/09 05:36:02;;;;;;;6.23;5.10;;;14.10;99.90;;;;;;6271905;22;20505;-60
2022/09/09 05:38:28;;;;;;;5.30;4.80;;;14.20;99.90;;;;;;6244368;22;20844;-59
2022/09/09 05:40:56;;;;;;;5.10;4.33;;;14.30;99.90;;;;;;6271475;22;20798;-60
2022/09/09 05:43:22;;;;;;;5.57;4.10;;;14.30;99.90;;;;;;6271766;22;20407;-60
2022/09/09 05:45:58;;;;;;;5.37;4.73;;;14.40;99.90;;;;;;6271557;22;20379;-61
2022/09/09 05:48:23;;;;;;;5.80;4.60;;;14.50;99.90;;;;;;6271895;22;20358;-60
2022/09/09 05:50:54;;;;;;;4.87;4.37;;;14.60;99.90;;;;;;6272276;22;20825;-60
2022/09/09 05:53:20;;;;;;;4.80;4.30;;;14.70;99.40;;;;;;6272094;22;20152;-60
2022/09/09 05:55:45;;;;;;;5.77;4.50;;;14.70;96.10;;;;;;6271902;22;20355;-60
2022/09/09 05:58:11;;;;;;;4.80;4.40;;;14.80;91.10;;;;;;6271730;22;20484;-60
2022/09/09 06:00:37;;;;;;;4.80;4.40;;;15.00;82.30;;;;;;6272062;22;20366;-60
2022/09/09 06:03:03;;;;;;;4.73;4.30;;;15.10;69.40;;;;;;6271873;22;20152;-61
2022/09/09 06:05:30;;;;;;;8.43;4.60;;;15.20;64.90;;;;;;6271727;22;20379;-59
2022/09/09 06:07:55;;;;;;;6.30;4.60;;;15.20;61.50;;;;;;6244689;22;21245;-59
2022/09/09 06:10:21;;;;;;;4.40;4.10;;;15.40;49.60;;;;;;6271864;22;20369;-60
2022/09/09 06:12:47;;;;;;;6.50;4.57;;;15.50;42.20;;;;;;6271729;22;20334;-58
2022/09/09 06:15:12;;;;;;;5.37;4.60;;;15.50;37.90;;;;;;6271724;22;20150;-59
2022/09/09 06:17:38;;;;;;;4.90;4.50;;;15.60;36.10;;;;;;6271387;22;20142;-59
2022/09/09 06:20:05;;;;;;;4.73;4.33;;;15.70;38.90;;;;;;6271417;22;20150;-59
2022/09/09 06:22:31;;;;;;;5.33;4.83;;;15.80;32.20;;;;;;6271563;22;20396;-60
2022/09/09 06:24:56;;;;;;;5.37;4.87;;;15.80;27.10;;;;;;6271560;22;20850;-60
2022/09/09 06:27:22;;;;;;;5.90;4.80;;;16.00;25.60;;;;;;6271304;22;20167;-59
2022/09/09 06:29:48;;;;;;;5.40;4.90;;;16.00;21.10;;;;;;6271106;22;20919;-59
2022/09/09 06:32:13;;;;;;;5.10;4.67;;;16.10;22.00;;;;;;6271239;22;20146;-59
2022/09/09 06:34:39;;;;;;;5.87;4.67;;;16.20;11.00;;;;;;6244231;22;20863;-60
2022/09/09 06:37:06;;;;;;;5.30;4.80;;;16.20;10.30;;;;;;6271600;22;20156;-60
2022/09/09 06:39:32;;;;;;;5.93;4.90;;;16.40;4.20;;;;;;6270923;22;20378;-59
2022/09/09 06:41:58;;;;;;;4.60;4.30;;;16.40;1.00;;;;;;6271272;22;20698;-60
2022/09/09 06:44:26;;;;;;;5.03;4.10;;;16.50;1.00;;;;;;6271629;22;20617;-60
2022/09/09 06:46:52;;;;;;;5.53;4.97;;;16.60;1.00;;;;;;6271536;22;20373;-60
2022/09/09 06:49:18;;;;;;;4.67;4.30;;;16.70;1.00;;;;;;6271971;22;20752;-60
2022/09/09 06:51:43;;;;;;;4.87;4.47;;;16.70;1.00;;;;;;6271536;22;20230;-59
2022/09/09 06:54:10;;;;;;;5.53;4.43;;;16.80;1.00;;;;;;6263523;22;20171;-60
2022/09/09 06:56:40;;;;;;;5.03;4.57;;;16.90;1.00;;;;;;6267453;22;20175;-60
2022/09/09 06:59:08;;;;;;;4.30;3.90;;;16.90;1.00;;;;;;6266946;22;20814;-60
2022/09/09 07:01:43;;;;;;;4.90;4.10;;;17.00;1.00;;;;;;6271301;22;21030;-59
2022/09/09 07:04:10;;;;;;;4.43;4.03;;;17.20;1.00;;;;;;6271275;22;20819;-60
2022/09/09 07:06:44;;;;;;;4.20;3.90;;;17.30;1.00;;;;;;5947996;22;10001346;-52
2022/09/09 07:09:12;;;;;;;4.43;3.93;;;17.30;1.00;;;;;;5567130;23;10001529;-59
2022/09/09 07:11:47;;;;;;;4.93;3.77;;;17.60;1.00;;;;;;6210428;23;20369;-60
2022/09/09 07:14:14;;;;;;;4.50;4.10;;;17.70;1.00;;;;;;6209491;23;20380;-60
2022/09/09 07:16:43;;;;;;;4.10;3.80;;;17.90;1.00;;;;;;6209396;23;20372;-60
2022/09/09 07:19:10;;;;;;;4.87;4.20;;;17.90;1.00;;;;;;6209323;23;20377;-59
2022/09/09 07:21:36;;;;;;;4.23;3.83;;;18.10;1.00;;;;;;6208856;23;20377;-60
2022/09/09 07:24:02;;;;;;;4.17;3.77;;;18.20;1.00;;;;;;6210064;23;20996;-59
2022/09/09 07:26:30;;;;;;;7.10;4.37;;;18.20;1.00;;;;;;6208902;23;20362;-59
2022/09/09 07:28:57;;;;;;;4.83;3.73;;;18.30;1.00;;;;;;6212206;23;20138;-59
2022/09/09 07:31:34;;;;;;;4.53;4.23;;;18.30;1.00;;;;;;6240599;23;20383;-60
2022/09/09 07:34:00;;;;;;;4.10;3.80;;;18.40;1.00;;;;;;6239925;23;20454;-60
2022/09/09 07:36:44;;;;;;;4.50;3.20;;;18.50;1.00;;;;;;6240586;23;20364;-60
2022/09/09 07:39:17;;;;;;;4.30;3.90;;;18.50;1.00;;;;;;6240085;23;20683;-60
2022/09/09 07:41:45;;;;;;;4.30;3.67;;;18.40;1.00;;;;;;6240430;23;20720;-59
2022/09/09 07:44:14;;;;;;;4.07;3.67;;;18.60;1.00;;;;;;6240304;23;20404;-60
2022/09/09 07:46:41;;;;;;;4.10;3.80;;;18.60;1.00;;;;;;6239091;23;20378;-59
2022/09/09 07:49:08;;;;;;;3.90;3.50;;;18.70;1.00;;;;;;6240299;23;20415;-60
2022/09/09 07:51:42;;;;;;;7.77;3.70;;;18.90;1.00;;;;;;6242362;23;20367;-60
2022/09/09 07:54:12;;;;;;;5.00;3.83;;;19.10;99.90;;;;;;6242177;23;20375;-59
2022/09/09 07:56:40;;;;;;;4.63;3.60;;;19.30;99.90;;;;;;6242346;23;20362;-60
2022/09/09 07:59:06;;;;;;;3.67;3.27;;;19.50;99.90;;;;;;6241555;23;20387;-60
2022/09/09 08:01:44;;;;;;;4.33;3.47;;;19.70;99.90;;;;;;6241558;23;20996;-60
2022/09/09 08:04:16;;;;;;;3.70;3.40;;;20.00;99.90;;;;;;6241986;23;20440;-60
2022/09/09 08:06:44;;;;;;;4.30;3.53;;;20.50;99.90;;;;;;6241911;23;20376;-61
2022/09/09 08:09:10;;;;;;;4.50;4.10;;;20.90;1.00;;;;;;6242017;23;20384;-60
2022/09/09 08:11:36;;;;;;;4.33;3.93;;;21.20;1.00;;;;;;6241177;23;20860;-60
2022/09/09 08:14:03;;;;;;;6.00;4.00;;;21.60;75.50;;;;;;6241370;23;20141;-59
2022/09/09 08:16:32;;;;;;;4.37;3.97;;;21.60;99.90;;;;;;6241765;23;20704;-60
2022/09/09 08:18:59;;;;;;;4.90;4.50;;;21.90;1.00;;;;;;6242123;23;20973;-60
2022/09/09 08:21:27;;;;;;;4.43;4.13;;;22.00;99.90;;;;;;6242090;23;20380;-60
2022/09/09 08:23:54;;;;;;;3.93;3.73;;;22.00;99.90;;;;;;6240485;23;20495;-59
2022/09/09 08:26:22;;;;;;;4.20;3.90;;;21.90;99.00;;;;;;6241526;23;20383;-59
2022/09/09 08:28:53;;;;;;;4.73;4.23;;;21.90;1.00;;;;;;6242172;23;20741;-58
2022/09/09 08:31:21;;;;;;;4.20;3.80;;;22.00;1.00;;;;;;6241365;23;20387;-59
2022/09/09 08:33:47;;;;;;;4.50;4.20;;;21.90;99.90;;;;;;6239086;23;20402;-59
2022/09/09 08:36:20;;;;;;;4.73;4.30;;;21.80;55.50;;;;;;6237696;23;20368;-59
2022/09/09 08:38:57;;;;;;;4.00;3.70;;;21.80;99.90;;;;;;6242052;23;20360;-60
2022/09/09 08:41:41;;;;;;;4.50;4.17;;;21.80;99.90;;;;;;6242310;23;20356;-59
2022/09/09 08:44:15;;;;;;;4.80;4.50;;;21.80;99.90;;;;;;6241881;23;21043;-60
2022/09/09 08:47:04;;;;;;;4.70;4.30;;;21.80;1.00;;;;;;6241724;23;20889;-59
2022/09/09 08:49:36;;;;;;;4.77;4.47;;;21.80;1.00;;;;;;6240908;23;20897;-59
2022/09/09 08:52:06;;;;;;;3.90;3.60;;;22.10;99.90;;;;;;6242123;23;20391;-60
2022/09/09 08:54:35;;;;;;;4.80;4.40;;;22.10;44.00;;;;;;6241004;23;20357;-61
2022/09/09 08:57:01;;;;;;;4.30;4.00;;;22.00;99.90;;;;;;6240582;23;20376;-60
2022/09/09 08:59:27;;;;;;;4.70;4.30;;;22.10;99.90;;;;;;6242185;23;20682;-60
2022/09/09 09:02:15;;;;;;;4.00;3.70;;;22.30;1.00;;;;;;6234622;23;20195;-61
2022/09/09 09:04:59;;;;;;;4.73;4.33;;;22.40;99.90;;;;;;6241422;23;20196;-60
2022/09/09 09:08:04;;;;;;;4.73;3.10;;;22.60;99.90;;;;;;6241864;23;20368;-59
2022/09/09 09:10:50;;;;;;;4.33;3.93;;;22.60;1.00;;;;;;6240844;23;20380;-60
2022/09/09 09:13:37;;;;;;;4.80;4.40;;;22.60;1.00;;;;;;6241932;23;20360;-59
2022/09/09 09:16:21;;;;;;;4.27;3.93;;;22.60;99.90;;;;;;6240772;23;20353;-60
2022/09/09 09:18:47;;;;;;;4.53;4.23;;;22.70;1.00;;;;;;6240731;23;20360;-59
2022/09/09 09:21:26;;;;;;;3.60;3.30;;;22.60;1.00;;;;;;6215910;23;20449;-46
2022/09/09 09:24:00;;;;;;;4.30;3.97;;;22.70;11.30;;;;;;6241536;23;20177;-48
2022/09/09 09:26:35;;;;;;;4.47;4.10;;;22.90;1.00;;;;;;6239570;23;20410;-50
2022/09/09 09:29:09;;;;;;;5.30;4.90;;;23.00;32.10;;;;;;6239180;23;20359;-49
2022/09/09 09:31:35;;;;;;;4.63;4.30;;;22.60;1.00;;;;;;6241660;23;20442;-50
2022/09/09 09:34:02;;;;;;;4.40;4.07;;;22.20;99.90;;;;;;6241378;23;20741;-47
2022/09/09 09:36:57;;;;;;;5.00;4.60;;;21.70;99.90;;;;;;6241030;23;20187;-46
2022/09/09 09:39:28;;;;;;;5.43;4.10;;;21.10;1.00;;;;;;6239620;23;20415;-47
2022/09/09 09:41:54;;;;;;;4.30;3.97;;;20.30;1.00;;;;;;6241454;23;20386;-49
2022/09/09 09:44:27;;;;;;;6.00;3.80;;;19.70;1.00;;;;;;6240907;23;20453;-50
2022/09/09 09:47:04;;;;;;;4.30;3.90;;;19.30;1.00;;;;;;6241803;23;20869;-50
2022/09/09 09:49:30;;;;;;;4.00;3.20;;;19.10;30.10;;;;;;6241776;23;20386;-46
2022/09/09 09:52:02;;;;;;;4.67;3.63;;;18.80;80.10;;;;;;6241394;23;20353;-48
2022/09/09 09:54:36;;;;;;;4.17;3.60;;;18.70;99.90;;;;;;6241478;23;20145;-46
2022/09/09 09:57:14;;;;;;;3.30;3.00;;;18.90;99.90;;;;;;6241609;23;20781;-48
2022/09/09 09:59:41;;;;;;;4.70;3.50;;;19.20;99.90;;;;;;6241229;23;20572;-50
2022/09/09 10:02:17;;;;;;;4.47;3.30;;;19.80;99.90;;;;;;6241435;23;20369;-50
2022/09/09 10:04:44;;;;;;;3.30;2.60;;;20.40;99.90;;;;;;6241521;23;20422;-46
2022/09/09 10:07:28;;;;;;;3.93;2.37;;;21.10;98.40;;;;;;6241366;23;20356;-45
2022/09/09 10:09:57;;;;;;;2.70;2.20;;;22.00;64.00;;;;;;6240529;23;20380;-46
2022/09/09 10:12:39;;;;;;;2.93;2.20;;;23.30;1.00;;;;;;6241372;23;20448;-50
2022/09/09 10:15:50;;;;;;;3.37;2.20;;;24.50;1.00;;;;;;6240918;23;20360;-46
2022/09/09 10:18:22;;;;;;;2.67;2.27;;;25.60;99.90;;;;;;6239287;23;20458;-45
2022/09/09 10:21:15;;;;;;;3.03;2.10;;;26.30;99.90;;;;;;6220565;23;20765;-54
2022/09/09 10:23:59;;;;;;;2.83;2.57;;;27.10;1.00;;;;;;6240732;23;20455;-48
2022/09/09 10:26:47;;;;;;;3.70;3.40;;;28.30;91.00;;;;;;6240860;23;20359;-48
2022/09/09 10:29:27;;;;;;;4.53;4.23;;;29.40;99.90;;;;;;6240303;23;20420;-51
2022/09/09 10:32:08;;;;;;;3.77;3.57;;;29.70;1.00;;;;;;6240671;23;20356;-50
2022/09/09 10:34:56;;;;;;;4.20;3.73;;;30.30;1.00;;;;;;6240304;23;20368;-46
2022/09/09 10:37:22;;;;;;;4.53;4.13;;;30.90;1.00;;;;;;6240674;23;20364;-47
2022/09/09 10:39:58;;;;;;;5.00;4.70;;;31.00;1.00;;;;;;6240428;23;20415;-50
2022/09/09 10:42:30;;;;;;;4.43;4.13;;;31.30;1.00;;;;;;6239713;23;20375;-49
2022/09/09 10:45:14;;;;;;;6.50;6.00;;;31.80;99.90;;;;;;6240415;23;20862;-51
2022/09/09 10:47:50;;;;;;;4.57;4.27;;;32.30;99.90;;;;;;6240284;23;20684;-52
2022/09/09 10:50:21;;;;;;;4.27;3.87;;;32.60;99.90;;;;;;6239961;23;20379;-48
2022/09/09 10:52:58;;;;;;;4.00;3.70;;;32.90;99.90;;;;;;6240593;23;20459;-48
2022/09/09 10:55:27;;;;;;;3.80;3.60;;;32.90;99.90;;;;;;6240314;23;20383;-48
2022/09/09 10:57:57;;;;;;;5.33;5.03;;;33.20;99.90;;;;;;6214041;23;20408;-46
2022/09/09 11:00:30;;;;;;;5.57;5.07;;;32.90;99.90;;;;;;6240933;23;20472;-47
2022/09/09 11:03:04;;;;;;;6.07;5.60;;;33.00;99.90;;;;;;6240240;23;20372;-47
2022/09/09 11:05:44;;;;;;;6.40;6.00;;;32.40;99.90;;;;;;6240289;23;20364;-44
2022/09/09 11:08:12;;;;;;;6.17;5.77;;;32.00;99.90;;;;;;6240551;23;20815;-51
2022/09/09 11:10:40;;;;;;;5.60;5.27;;;31.60;99.90;;;;;;6240305;23;20364;-52
2022/09/09 11:13:15;;;;;;;6.17;5.87;;;31.00;99.90;;;;;;6240974;23;20360;-50
2022/09/09 11:15:49;;;;;;;6.07;5.77;;;30.70;99.90;;;;;;6240315;23;20370;-52
2022/09/09 11:18:21;;;;;;;6.77;6.27;;;30.50;99.90;;;;;;6239092;23;20781;-49
2022/09/09 11:20:50;;;;;;;6.37;6.07;;;29.90;99.90;;;;;;6239839;23;20866;-47
2022/09/09 11:23:43;;;;;;;6.33;5.93;;;29.20;99.90;;;;;;6240087;23;20361;-50
2022/09/09 11:26:17;;;;;;;6.67;6.17;;;28.60;99.90;;;;;;6241779;23;20387;-47
2022/09/09 11:29:22;;;;;;;7.27;6.83;;;27.90;99.90;;;;;;6242956;23;20390;-47
2022/09/09 11:32:09;;;;;;;7.57;7.07;;;27.10;91.90;;;;;;6242513;23;21053;-49
2022/09/09 11:35:18;;;;;;;9.13;8.50;;;26.40;99.90;;;;;;6242253;23;20364;-48
2022/09/09 11:38:21;;;;;;;8.60;8.00;;;25.50;99.90;;;;;;6226626;23;20388;-51
2022/09/09 11:40:54;;;;;;;7.20;6.60;;;25.30;1.00;;;;;;6214678;23;20383;-49
2022/09/09 11:43:26;;;;;;;7.10;6.70;;;26.20;99.90;;;;;;6215452;23;20431;-48
2022/09/09 11:45:59;;;;;;;6.30;6.00;;;27.30;83.80;;;;;;6242064;23;20696;-50
2022/09/09 11:48:34;;;;;;;5.83;5.43;;;28.20;1.00;;;;;;6242020;23;20387;-47
2022/09/09 11:51:07;;;;;;;4.80;4.53;;;29.40;1.00;;;;;;6242955;23;20454;-48
2022/09/09 11:53:34;;;;;;;5.47;4.97;;;30.70;1.00;;;;;;6242532;23;20364;-44
2022/09/09 11:56:09;;;;;;;6.00;5.70;;;31.50;99.90;;;;;;6242418;23;20523;-47
2022/09/09 11:58:41;;;;;;;5.90;5.57;;;32.30;99.90;;;;;;6242582;23;21050;-51
2022/09/09 12:01:30;;;;;;;6.23;5.83;;;32.40;99.90;;;;;;6242405;23;20902;-45
2022/09/09 12:04:11;;;;;;;6.50;6.00;;;33.20;99.90;;;;;;6242820;23;20439;-47
2022/09/09 12:06:50;;;;;;;4.57;4.20;;;33.80;99.90;;;;;;6242097;23;20666;-50
2022/09/09 12:09:26;;;;;;;4.77;4.30;;;34.10;99.90;;;;;;6243022;23;20680;-52
2022/09/09 12:11:52;;;;;;;4.20;3.90;;;34.30;99.90;;;;;;6242529;23;20356;-51
2022/09/09 12:14:45;;;;;;;4.20;4.00;;;33.70;99.90;;;;;;6242695;23;20369;-49
2022/09/09 12:17:24;;;;;;;5.00;4.60;;;34.00;99.90;;;;;;6242458;23;20360;-50
2022/09/09 12:20:21;;;;;;;4.90;4.57;;;34.20;99.90;;;;;;6242948;23;20738;-49
2022/09/09 12:22:50;;;;;;;4.63;4.40;;;34.90;99.90;;;;;;6242567;23;20356;-54
2022/09/09 12:25:22;;;;;;;4.90;4.60;;;34.30;99.90;;;;;;6242352;23;20507;-53
2022/09/09 12:28:15;;;;;;;5.20;4.80;;;34.20;99.90;;;;;;6242838;23;20689;-46
2022/09/09 12:30:46;;;;;;;5.30;5.00;;;34.20;99.90;;;;;;6242536;23;20458;-53
2022/09/09 12:33:16;;;;;;;4.63;4.23;;;33.90;99.90;;;;;;6242513;23;20399;-50
2022/09/09 12:35:44;;;;;;;4.43;4.13;;;33.70;99.90;;;;;;6242086;23;20397;-48
2022/09/09 12:38:19;;;;;;;4.90;4.60;;;34.00;99.90;;;;;;6242220;23;20364;-50
2022/09/09 12:40:55;;;;;;;4.63;4.33;;;34.40;99.90;;;;;;6242402;23;20359;-52
2022/09/09 12:43:22;;;;;;;4.43;4.23;;;34.90;99.90;;;;;;6242461;23;20391;-49
2022/09/09 12:45:56;;;;;;;4.80;4.40;;;35.10;99.90;;;;;;6242461;23;20379;-49
2022/09/09 12:48:24;;;;;;;4.57;4.37;;;34.90;99.90;;;;;;6242616;23;20357;-48
2022/09/09 12:50:52;;;;;;;4.63;4.33;;;34.70;99.90;;;;;;6215324;23;20441;-49
2022/09/09 12:53:24;;;;;;;4.60;4.30;;;34.60;99.90;;;;;;6242111;23;20377;-48
2022/09/09 12:55:57;;;;;;;4.50;4.30;;;34.20;99.90;;;;;;6241855;23;20360;-49
2022/09/09 12:58:24;;;;;;;4.60;4.30;;;33.60;99.90;;;;;;6242474;23;20373;-50
2022/09/09 13:00:52;;;;;;;5.53;5.13;;;33.10;99.90;;;;;;6241487;23;20483;-50
2022/09/09 13:03:20;;;;;;;4.90;4.60;;;32.00;99.90;;;;;;6241934;23;20356;-51
2022/09/09 13:05:46;;;;;;;5.30;4.90;;;30.80;99.90;;;;;;6242186;23;20360;-48
2022/09/09 13:08:13;;;;;;;5.20;4.87;;;30.20;99.90;;;;;;6242122;23;20467;-47
2022/09/09 13:10:59;;;;;;;5.33;4.90;;;29.80;99.90;;;;;;6242043;23;20973;-44
2022/09/09 13:13:32;;;;;;;4.77;4.20;;;30.00;99.90;;;;;;6242426;23;20362;-47